Time;durP1;ratioP1;P1;durP2;ratioP2;P2;SDS_P1;SDS_P2;PMS_P1;PMS_P2;Temp;Humidity;BMP_temperature;BMP_pressure;BME280_temperature;BME280_humidity;BME280_pressure;Samples;Min_cycle;Max_cycle;Signal;HPM_P1;HPM_P2
2024/01/03 00:07:40;;;;;;;17.17;15.82;;;;;;;;;;6322578;22;20100;-88
2024/01/03 00:14:17;;;;;;;17.38;15.80;;;;;;;;;;6316593;22;20386;-91
2024/01/03 00:17:14;;;;;;;19.40;17.67;;;;;;;;;;6296598;22;20018;-88
2024/01/03 00:20:11;;;;;;;18.98;17.55;;;;;;;;;;6295376;22;20067;-89
2024/01/03 00:23:04;;;;;;;22.50;18.27;;;;;;;;;;6297227;22;20019;-88
2024/01/03 00:29:36;;;;;;;35.45;22.88;;;;;;;;;;6321796;22;20031;-89
2024/01/03 00:32:21;;;;;;;34.03;24.50;;;;;;;;;;6298759;22;20041;-88
2024/01/03 00:35:12;;;;;;;42.10;25.67;;;;;;;;;;6302835;22;20017;-88
2024/01/03 00:37:58;;;;;;;36.83;25.75;;;;;;;;;;6301172;22;20018;-88
2024/01/03 00:40:57;;;;;;;34.03;26.63;;;;;;;;;;6301100;22;20102;-89
2024/01/03 00:43:41;;;;;;;36.90;29.45;;;;;;;;;;6300527;22;20018;-88
2024/01/03 00:46:30;;;;;;;41.20;28.27;;;;;;;;;;6301681;22;20030;-90
2024/01/03 00:49:17;;;;;;;39.67;29.38;;;;;;;;;;6301598;22;20022;-89
2024/01/03 00:52:04;;;;;;;37.08;25.25;;;;;;;;;;6300845;22;20022;-90
2024/01/03 01:02:31;;;;;;;26.85;23.45;;;;;;;;;;6321458;22;20045;-88
2024/01/03 01:05:17;;;;;;;29.75;24.77;;;;;;;;;;6270647;22;20108;-89
2024/01/03 01:08:02;;;;;;;26.95;23.83;;;;;;;;;;6299964;22;20341;-89
2024/01/03 01:10:46;;;;;;;35.17;24.08;;;;;;;;;;6299781;22;20018;-89
2024/01/03 01:13:31;;;;;;;29.42;26.23;;;;;;;;;;6297758;22;20449;-87
2024/01/03 01:16:15;;;;;;;36.38;28.35;;;;;;;;;;6278678;22;20022;-88
2024/01/03 01:19:17;;;;;;;40.97;28.83;;;;;;;;;;6298520;22;20022;-89
2024/01/03 01:22:04;;;;;;;30.67;25.60;;;;;;;;;;6298784;22;20018;-89
2024/01/03 01:24:49;;;;;;;34.28;27.85;;;;;;;;;;6298002;22;20014;-89
2024/01/03 01:27:41;;;;;;;30.15;26.88;;;;;;;;;;6296349;22;20042;-89
2024/01/03 01:30:25;;;;;;;30.30;27.08;;;;;;;;;;6290332;22;20094;-88
2024/01/03 01:33:09;;;;;;;29.55;26.55;;;;;;;;;;6297376;22;20018;-88
2024/01/03 01:35:53;;;;;;;29.95;27.13;;;;;;;;;;6296453;22;20073;-88
2024/01/03 01:38:47;;;;;;;30.92;27.88;;;;;;;;;;6297240;22;20023;-91
2024/01/03 01:41:44;;;;;;;30.02;27.00;;;;;;;;;;6300972;22;20018;-89
2024/01/03 01:48:11;;;;;;;25.88;23.48;;;;;;;;;;6324051;22;20063;-90
2024/01/03 01:50:58;;;;;;;26.30;24.05;;;;;;;;;;6300868;22;20030;-89
2024/01/03 01:53:45;;;;;;;26.30;23.73;;;;;;;;;;6296314;22;20049;-91
2024/01/03 01:56:30;;;;;;;24.30;22.35;;;;;;;;;;6298622;22;20472;-90
2024/01/03 01:59:15;;;;;;;24.08;21.75;;;;;;;;;;6233724;22;20023;-92
2024/01/03 02:02:19;;;;;;;24.30;22.50;;;;;;;;;;6300763;22;20021;-92
2024/01/03 02:05:07;;;;;;;24.15;21.90;;;;;;;;;;6283351;22;20098;-90
2024/01/03 02:07:59;;;;;;;25.48;23.33;;;;;;;;;;6308507;22;20050;-90
2024/01/03 02:13:29;;;;;;;23.45;21.45;;;;;;;;;;6169017;23;20032;-89
2024/01/03 02:16:14;;;;;;;25.10;22.98;;;;;;;;;;6172684;23;20102;-88
2024/01/03 02:18:58;;;;;;;25.20;23.00;;;;;;;;;;6173198;23;20051;-88
2024/01/03 02:21:45;;;;;;;24.17;22.25;;;;;;;;;;6173758;23;20019;-89
2024/01/03 02:24:29;;;;;;;26.00;23.65;;;;;;;;;;6174376;23;20466;-88
2024/01/03 02:27:24;;;;;;;;;;;;;;;;;;;;;
2024/01/03 02:30:09;;;;;;;26.83;24.02;;;;;;;;;;6193350;23;20108;-89
2024/01/03 02:32:53;;;;;;;24.90;22.83;;;;;;;;;;6169892;23;20072;-90
2024/01/03 02:35:46;;;;;;;27.35;24.98;;;;;;;;;;6173671;23;20055;-89
2024/01/03 02:38:33;;;;;;;25.88;23.33;;;;;;;;;;6172725;23;20415;-89
2024/01/03 02:41:17;;;;;;;26.38;24.05;;;;;;;;;;6170569;23;20047;-90
2024/01/03 02:44:06;;;;;;;27.40;24.55;;;;;;;;;;6173306;23;20048;-89
2024/01/03 02:51:01;;;;;;;27.63;22.05;;;;;;;;;;6192856;23;20344;-89
2024/01/03 02:53:47;;;;;;;25.58;23.42;;;;;;;;;;6170289;23;20024;-89
2024/01/03 02:56:41;;;;;;;25.70;22.20;;;;;;;;;;6169406;23;20024;-91
2024/01/03 02:59:25;;;;;;;27.38;24.50;;;;;;;;;;6167273;23;20024;-91
2024/01/03 03:02:10;;;;;;;26.98;24.10;;;;;;;;;;6168769;23;20078;-89
2024/01/03 03:05:01;;;;;;;26.90;23.73;;;;;;;;;;6171003;23;20039;-87
2024/01/03 03:07:45;;;;;;;26.85;24.80;;;;;;;;;;6172428;22;20043;-88
2024/01/03 03:10:29;;;;;;;27.92;25.23;;;;;;;;;;6169713;23;20519;-90
2024/01/03 03:13:13;;;;;;;26.98;24.83;;;;;;;;;;6169704;23;20036;-90
2024/01/03 03:15:58;;;;;;;25.33;23.27;;;;;;;;;;6169023;23;20068;-89
2024/01/03 03:18:41;;;;;;;26.77;24.75;;;;;;;;;;6170636;23;20020;-88
2024/01/03 03:21:25;;;;;;;27.95;25.40;;;;;;;;;;6168242;23;20020;-88
2024/01/03 03:24:12;;;;;;;27.02;24.45;;;;;;;;;;6174754;23;20032;-90
2024/01/03 03:26:56;;;;;;;25.95;24.08;;;;;;;;;;6174644;23;20093;-90
2024/01/03 03:29:40;;;;;;;27.13;24.40;;;;;;;;;;6173996;23;20501;-87
2024/01/03 03:32:24;;;;;;;27.45;24.58;;;;;;;;;;6173445;22;20051;-88
2024/01/03 03:35:08;;;;;;;27.77;25.40;;;;;;;;;;6171442;23;20043;-88
2024/01/03 03:37:52;;;;;;;27.00;24.33;;;;;;;;;;6169595;23;20024;-88
2024/01/03 03:40:36;;;;;;;27.40;24.70;;;;;;;;;;6169210;23;20474;-88
2024/01/03 03:43:20;;;;;;;28.05;25.13;;;;;;;;;;6173125;23;20063;-88
2024/01/03 03:46:08;;;;;;;28.02;25.52;;;;;;;;;;6174553;23;20008;-88
2024/01/03 03:48:58;;;;;;;28.73;25.40;;;;;;;;;;6175179;23;20020;-88
2024/01/03 03:51:42;;;;;;;31.65;26.42;;;;;;;;;;6174126;22;20019;-89
2024/01/03 03:54:26;;;;;;;28.08;25.17;;;;;;;;;;6176159;23;20020;-87
2024/01/03 03:57:13;;;;;;;40.40;27.77;;;;;;;;;;6179001;23;20024;-91
2024/01/03 03:59:57;;;;;;;31.10;27.25;;;;;;;;;;6179758;23;20024;-89
2024/01/03 04:02:43;;;;;;;30.83;26.15;;;;;;;;;;6177134;23;20020;-89
2024/01/03 04:05:30;;;;;;;34.05;26.85;;;;;;;;;;6175649;23;20020;-88
2024/01/03 04:08:15;;;;;;;34.20;26.88;;;;;;;;;;6176245;23;20079;-90
2024/01/03 04:11:03;;;;;;;32.47;26.90;;;;;;;;;;6175896;23;20020;-89
2024/01/03 04:13:47;;;;;;;39.45;27.17;;;;;;;;;;6176352;23;20055;-89
2024/01/03 04:16:34;;;;;;;36.35;27.08;;;;;;;;;;6177014;23;20042;-87
2024/01/03 04:19:19;;;;;;;34.40;26.15;;;;;;;;;;6175184;23;20048;-89
2024/01/03 04:22:05;;;;;;;34.65;27.08;;;;;;;;;;6169811;23;20024;-90
2024/01/03 04:24:49;;;;;;;33.55;28.38;;;;;;;;;;6175821;23;20020;-88
2024/01/03 04:27:36;;;;;;;38.80;27.85;;;;;;;;;;6175287;23;20024;-90
2024/01/03 04:30:21;;;;;;;55.55;27.80;;;;;;;;;;6172782;23;20097;-88
2024/01/03 04:33:05;;;;;;;33.03;26.27;;;;;;;;;;6174118;23;20108;-89
2024/01/03 04:35:49;;;;;;;33.63;25.13;;;;;;;;;;6174822;23;20092;-90
2024/01/03 04:38:39;;;;;;;51.90;29.15;;;;;;;;;;6180956;23;20023;-89
2024/01/03 04:41:44;;;;;;;46.15;28.75;;;;;;;;;;6201543;23;20048;-90
2024/01/03 04:48:19;;;;;;;41.03;28.55;;;;;;;;;;6205701;23;20032;-87
2024/01/03 04:55:12;;;;;;;33.33;26.20;;;;;;;;;;6197625;23;20030;-89
2024/01/03 04:57:57;;;;;;;37.33;27.67;;;;;;;;;;6176064;23;20024;-90
2024/01/03 05:00:41;;;;;;;33.53;27.30;;;;;;;;;;6176734;23;20028;-88
2024/01/03 05:03:26;;;;;;;37.75;26.75;;;;;;;;;;6174630;23;20096;-89
2024/01/03 05:06:10;;;;;;;37.17;27.02;;;;;;;;;;6171316;23;20020;-88
2024/01/03 05:09:01;;;;;;;38.17;25.80;;;;;;;;;;6172910;23;20020;-87
2024/01/03 05:11:45;;;;;;;37.20;26.23;;;;;;;;;;6173504;23;20023;-89
2024/01/03 05:14:31;;;;;;;44.67;28.55;;;;;;;;;;6143713;22;20027;-90
2024/01/03 05:17:15;;;;;;;36.00;27.52;;;;;;;;;;6251963;22;20023;-90
2024/01/03 05:20:04;;;;;;;38.30;25.05;;;;;;;;;;6275410;22;20025;-91
2024/01/03 05:22:51;;;;;;;32.15;24.73;;;;;;;;;;6253982;22;20062;-90
2024/01/03 05:25:39;;;;;;;39.80;26.20;;;;;;;;;;6274662;22;20021;-91
2024/01/03 05:28:24;;;;;;;38.03;26.55;;;;;;;;;;6252124;22;20021;-88
2024/01/03 05:31:08;;;;;;;51.63;26.58;;;;;;;;;;6273046;22;20071;-88
2024/01/03 05:33:52;;;;;;;39.38;24.50;;;;;;;;;;6255479;22;20020;-90
2024/01/03 05:36:37;;;;;;;46.28;23.23;;;;;;;;;;6276505;22;20044;-91
2024/01/03 05:39:21;;;;;;;31.33;23.65;;;;;;;;;;6276654;22;20056;-88
2024/01/03 05:42:06;;;;;;;39.22;26.45;;;;;;;;;;6254617;22;20393;-88
2024/01/03 05:44:50;;;;;;;35.80;25.42;;;;;;;;;;6255363;22;20021;-87
2024/01/03 05:47:35;;;;;;;38.60;26.20;;;;;;;;;;6277637;22;20069;-89
2024/01/03 05:50:22;;;;;;;43.83;27.98;;;;;;;;;;6254864;22;20024;-90
2024/01/03 05:53:07;;;;;;;38.00;25.95;;;;;;;;;;6278484;22;20020;-88
2024/01/03 05:55:50;;;;;;;41.17;25.85;;;;;;;;;;6255479;22;20079;-88
2024/01/03 05:58:34;;;;;;;51.10;27.58;;;;;;;;;;6273518;22;20025;-90
2024/01/03 06:01:18;;;;;;;40.67;20.30;;;;;;;;;;6275621;22;20042;-87
2024/01/03 06:04:02;;;;;;;49.65;20.70;;;;;;;;;;6272765;22;20041;-88
2024/01/03 06:06:46;;;;;;;36.15;21.73;;;;;;;;;;6274991;22;20039;-89
2024/01/03 06:09:32;;;;;;;27.58;17.25;;;;;;;;;;6274822;22;20020;-91
2024/01/03 06:12:20;;;;;;;37.22;17.80;;;;;;;;;;6299892;22;20024;-88
2024/01/03 06:15:05;;;;;;;30.00;17.58;;;;;;;;;;6333155;22;20080;-88
2024/01/03 06:17:51;;;;;;;44.97;19.92;;;;;;;;;;6331937;22;20022;-89
2024/01/03 06:20:36;;;;;;;37.25;18.13;;;;;;;;;;6332263;22;20018;-87
2024/01/03 06:23:20;;;;;;;42.92;18.88;;;;;;;;;;6332388;22;20017;-88
2024/01/03 06:26:09;;;;;;;35.80;19.35;;;;;;;;;;6333332;22;20394;-88
2024/01/03 06:28:53;;;;;;;38.25;18.42;;;;;;;;;;6332534;22;20060;-88
2024/01/03 06:31:38;;;;;;;46.90;26.20;;;;;;;;;;6331149;22;20022;-89
2024/01/03 06:34:28;;;;;;;32.83;21.55;;;;;;;;;;6332822;22;20021;-88
2024/01/03 06:37:12;;;;;;;30.23;21.23;;;;;;;;;;6329889;22;20045;-88
2024/01/03 06:39:57;;;;;;;38.97;21.90;;;;;;;;;;6331474;22;20029;-90
2024/01/03 06:42:48;;;;;;;36.97;19.30;;;;;;;;;;6332794;22;20050;-88
2024/01/03 06:45:32;;;;;;;32.88;20.73;;;;;;;;;;6331686;22;20036;-90
2024/01/03 06:48:19;;;;;;;33.90;20.83;;;;;;;;;;6328638;22;20059;-90
2024/01/03 06:51:03;;;;;;;31.85;20.50;;;;;;;;;;6325973;22;20049;-89
2024/01/03 06:53:48;;;;;;;58.10;26.92;;;;;;;;;;6326277;22;20018;-89
2024/01/03 06:56:32;;;;;;;120.82;33.00;;;;;;;;;;6324994;22;20071;-89
2024/01/03 06:59:16;;;;;;;42.72;23.02;;;;;;;;;;6324508;22;20022;-87
2024/01/03 07:02:03;;;;;;;34.72;22.83;;;;;;;;;;6327360;22;20022;-89
2024/01/03 07:04:47;;;;;;;39.45;21.05;;;;;;;;;;6324470;22;20338;-91
2024/01/03 07:07:32;;;;;;;86.07;28.20;;;;;;;;;;6323723;22;20088;-91
2024/01/03 07:10:16;;;;;;;41.35;20.40;;;;;;;;;;6324070;22;20033;-90
2024/01/03 07:16:46;;;;;;;47.42;19.25;;;;;;;;;;6229376;22;20063;-90
2024/01/03 07:19:31;;;;;;;29.35;16.02;;;;;;;;;;6326677;22;20018;-89
2024/01/03 07:22:14;;;;;;;37.30;19.55;;;;;;;;;;6325708;22;20059;-90
2024/01/03 07:24:58;;;;;;;26.10;17.58;;;;;;;;;;6326030;22;20014;-88
2024/01/03 07:27:48;;;;;;;25.73;15.95;;;;;;;;;;6330963;22;20013;-89
2024/01/03 07:30:32;;;;;;;36.25;18.33;;;;;;;;;;6331425;22;20098;-89
2024/01/03 07:33:19;;;;;;;31.60;18.90;;;;;;;;;;6330825;22;20026;-88
2024/01/03 07:36:14;;;;;;;37.10;19.33;;;;;;;;;;6330447;22;20093;-89
2024/01/03 07:38:58;;;;;;;;;;;;;;;;;;6328045;22;20022;-89
2024/01/03 07:45:53;;;;;;;38.10;18.50;;;;;;;;;;6168664;23;20035;-88
2024/01/03 08:02:10;;;;;;;25.45;18.58;;;;;;;;;;6125991;23;20055;-88
2024/01/03 08:04:57;;;;;;;28.50;18.90;;;;;;;;;;6206275;23;20019;-89
2024/01/03 08:07:41;;;;;;;29.10;19.92;;;;;;;;;;6321480;22;20022;-90
2024/01/03 08:10:25;;;;;;;31.08;17.55;;;;;;;;;;6325315;22;20064;-92
2024/01/03 08:13:16;;;;;;;26.23;18.27;;;;;;;;;;6346252;22;20013;-89
2024/01/03 08:16:07;;;;;;;36.20;19.98;;;;;;;;;;6333295;22;20018;-91
2024/01/03 08:18:54;;;;;;;39.55;19.40;;;;;;;;;;6296012;22;20175;-89
2024/01/03 08:21:38;;;;;;;26.83;19.08;;;;;;;;;;6268203;22;20023;-89
2024/01/03 08:24:28;;;;;;;23.65;18.08;;;;;;;;;;6270701;22;20045;-89
2024/01/03 08:27:12;;;;;;;28.48;20.13;;;;;;;;;;6266421;22;20015;-89
2024/01/03 08:30:04;;;;;;;28.92;21.45;;;;;;;;;;6269074;22;20519;-93
2024/01/03 08:33:06;;;;;;;26.42;18.70;;;;;;;;;;6266030;22;20020;-90
2024/01/03 08:35:50;;;;;;;23.08;19.58;;;;;;;;;;6251963;22;20126;-88
2024/01/03 08:38:35;;;;;;;26.15;20.00;;;;;;;;;;6259711;22;20018;-90
2024/01/03 08:41:19;;;;;;;27.35;21.52;;;;;;;;;;6265435;22;20014;-90
2024/01/03 08:44:05;;;;;;;33.05;19.90;;;;;;;;;;6244861;22;20091;-89
2024/01/03 08:46:49;;;;;;;36.30;18.15;;;;;;;;;;6259164;22;20078;-88
2024/01/03 08:49:33;;;;;;;23.48;15.65;;;;;;;;;;6288762;22;20510;-87
2024/01/03 08:52:17;;;;;;;32.22;17.38;;;;;;;;;;6315576;22;20026;-88
2024/01/03 08:55:01;;;;;;;60.55;26.58;;;;;;;;;;6317235;22;20526;-92
2024/01/03 08:57:49;;;;;;;56.92;25.83;;;;;;;;;;6320946;22;20068;-90
2024/01/03 09:00:34;;;;;;;65.50;28.13;;;;;;;;;;6326019;22;20021;-89
2024/01/03 09:03:17;;;;;;;59.85;28.85;;;;;;;;;;6339269;22;20017;-89
2024/01/03 09:06:05;;;;;;;53.83;29.55;;;;;;;;;;6315035;22;20341;-89
2024/01/03 09:08:50;;;;;;;58.10;28.83;;;;;;;;;;6314425;22;20068;-88
2024/01/03 09:11:36;;;;;;;68.13;24.73;;;;;;;;;;6317914;22;20036;-88
2024/01/03 09:14:23;;;;;;;43.33;23.02;;;;;;;;;;6315068;22;20021;-85
2024/01/03 09:17:07;;;;;;;43.72;20.27;;;;;;;;;;6317038;22;20029;-89
2024/01/03 09:19:51;;;;;;;48.30;18.33;;;;;;;;;;6344032;22;20022;-91
2024/01/03 09:22:35;;;;;;;36.50;16.70;;;;;;;;;;6318181;22;20433;-88
2024/01/03 09:28:57;;;;;;;38.05;21.88;;;;;;;;;;6346165;22;20045;-90
2024/01/03 09:31:53;;;;;;;57.47;27.15;;;;;;;;;;6323280;22;20090;-90
2024/01/03 09:34:41;;;;;;;84.25;37.33;;;;;;;;;;6324042;22;20018;-89
2024/01/03 09:37:28;;;;;;;67.53;32.03;;;;;;;;;;6324410;22;20022;-89
2024/01/03 09:40:21;;;;;;;76.68;32.17;;;;;;;;;;6324025;22;20017;-89
2024/01/03 09:43:05;;;;;;;56.78;28.23;;;;;;;;;;6324748;22;20040;-88
2024/01/03 09:45:51;;;;;;;41.05;22.30;;;;;;;;;;6324191;22;20029;-88
2024/01/03 09:48:35;;;;;;;54.25;24.95;;;;;;;;;;6322656;22;20013;-89
2024/01/03 09:51:23;;;;;;;40.17;22.70;;;;;;;;;;6323090;22;20075;-89
2024/01/03 09:54:08;;;;;;;38.45;22.63;;;;;;;;;;6321868;22;20088;-89
2024/01/03 09:56:52;;;;;;;35.33;21.50;;;;;;;;;;6321901;22;20034;-90
2024/01/03 09:59:37;;;;;;;54.53;26.48;;;;;;;;;;6322274;22;20021;-89
2024/01/03 10:02:28;;;;;;;63.88;25.30;;;;;;;;;;6322345;22;20033;-88
2024/01/03 10:05:19;;;;;;;49.55;23.23;;;;;;;;;;6322471;22;20068;-89
2024/01/03 10:08:17;;;;;;;47.22;19.50;;;;;;;;;;6322625;22;20041;-90
2024/01/03 10:11:17;;;;;;;34.55;17.52;;;;;;;;;;6323881;22;20021;-89
2024/01/03 10:14:36;;;;;;;27.02;13.60;;;;;;;;;;6323742;22;20138;-91
2024/01/03 10:17:33;;;;;;;19.88;11.25;;;;;;;;;;6294119;22;20329;-87
2024/01/03 10:20:30;;;;;;;24.20;11.27;;;;;;;;;;6326380;22;20064;-89
2024/01/03 10:23:21;;;;;;;20.38;10.45;;;;;;;;;;6323707;22;20014;-89
2024/01/03 10:26:07;;;;;;;35.75;12.05;;;;;;;;;;6323245;22;20056;-88
2024/01/03 10:29:07;;;;;;;23.92;9.52;;;;;;;;;;6324130;22;20510;-88
2024/01/03 10:31:56;;;;;;;26.95;11.00;;;;;;;;;;6323673;22;20064;-88
2024/01/03 10:34:40;;;;;;;23.02;10.57;;;;;;;;;;6323833;22;20022;-91
2024/01/03 10:37:25;;;;;;;30.38;10.88;;;;;;;;;;6323987;22;20017;-89
2024/01/03 10:40:09;;;;;;;31.48;11.45;;;;;;;;;;6321254;22;20057;-90
2024/01/03 10:42:58;;;;;;;17.42;10.60;;;;;;;;;;6322807;22;20064;-88
2024/01/03 10:45:48;;;;;;;27.23;11.20;;;;;;;;;;6325607;22;20040;-90
2024/01/03 10:48:38;;;;;;;24.02;10.98;;;;;;;;;;6326379;22;20064;-90
2024/01/03 10:51:32;;;;;;;15.25;9.90;;;;;;;;;;6331082;22;20071;-89
2024/01/03 10:54:21;;;;;;;16.80;14.00;;;;;;;;;;6326858;22;20018;-90
2024/01/03 10:57:09;;;;;;;20.85;14.95;;;;;;;;;;6325826;22;20018;-89
2024/01/03 11:00:13;;;;;;;16.27;14.55;;;;;;;;;;6327005;22;20017;-90
2024/01/03 11:02:58;;;;;;;;;;;;;;;;;;6327058;22;20048;-89
2024/01/03 11:06:05;;;;;;;23.30;16.13;;;;;;;;;;6325270;22;19925;-89
2024/01/03 11:08:57;;;;;;;28.63;15.90;;;;;;;;;;6274750;22;20022;-90
2024/01/03 11:11:42;;;;;;;20.20;14.48;;;;;;;;;;6330126;22;20037;-89
2024/01/03 11:14:26;;;;;;;20.58;14.30;;;;;;;;;;6327327;22;20041;-89
2024/01/03 11:17:11;;;;;;;16.55;12.80;;;;;;;;;;6326209;22;20018;-89
2024/01/03 11:20:04;;;;;;;15.85;13.45;;;;;;;;;;6325056;22;20071;-89
2024/01/03 11:22:55;;;;;;;78.45;17.52;;;;;;;;;;6328561;22;20021;-89
2024/01/03 11:25:46;;;;;;;22.48;12.20;;;;;;;;;;6326690;22;20032;-90
2024/01/03 11:28:31;;;;;;;35.53;14.75;;;;;;;;;;6326843;22;20037;-90
2024/01/03 11:31:36;;;;;;;18.42;13.15;;;;;;;;;;6328324;22;20040;-90
2024/01/03 11:34:39;;;;;;;42.05;14.68;;;;;;;;;;6320689;22;20038;-90
2024/01/03 11:37:24;;;;;;;85.72;14.23;;;;;;;;;;6327648;22;20021;-90
2024/01/03 11:40:17;;;;;;;12.18;9.10;;;;;;;;;;6327342;22;20017;-91
2024/01/03 11:43:01;;;;;;;83.55;16.60;;;;;;;;;;6329892;22;20013;-89
2024/01/03 11:45:45;;;;;;;11.07;10.02;;;;;;;;;;6329707;22;20017;-90
2024/01/03 11:48:35;;;;;;;21.95;11.13;;;;;;;;;;6329276;22;20013;-89
2024/01/03 11:51:27;;;;;;;15.93;10.95;;;;;;;;;;6330307;22;20345;-90
2024/01/03 11:54:12;;;;;;;14.60;5.32;;;;;;;;;;6332927;22;20040;-90
2024/01/03 11:57:31;;;;;;;8.75;5.18;;;;;;;;;;6334580;22;20021;-90
2024/01/03 12:00:16;;;;;;;6.13;4.82;;;;;;;;;;6336027;22;20022;-89
2024/01/03 12:03:02;;;;;;;29.55;7.03;;;;;;;;;;6329407;22;20018;-90
2024/01/03 12:09:22;;;;;;;9.63;4.35;;;;;;;;;;6348346;22;20037;-89
2024/01/03 12:12:06;;;;;;;39.08;7.85;;;;;;;;;;6316293;22;20017;-89
2024/01/03 12:14:53;;;;;;;34.60;8.77;;;;;;;;;;6315991;22;20025;-88
2024/01/03 12:17:37;;;;;;;29.23;7.82;;;;;;;;;;6315969;22;20079;-88
2024/01/03 12:20:21;;;;;;;32.15;10.18;;;;;;;;;;6315964;22;20021;-88
2024/01/03 12:23:06;;;;;;;18.95;6.95;;;;;;;;;;6315992;22;20017;-87
2024/01/03 12:25:50;;;;;;;174.40;21.35;;;;;;;;;;6316062;22;20053;-87
2024/01/03 12:28:33;;;;;;;427.42;50.30;;;;;;;;;;6316033;22;20018;-88
2024/01/03 12:31:18;;;;;;;65.75;12.18;;;;;;;;;;6317917;22;20049;-91
2024/01/03 12:34:03;;;;;;;94.82;14.85;;;;;;;;;;6319010;22;20037;-88
2024/01/03 12:36:46;;;;;;;8.60;7.60;;;;;;;;;;6318636;22;20018;-90
2024/01/03 12:40:11;;;;;;;66.55;13.23;;;;;;;;;;6319091;22;20053;-89
2024/01/03 12:42:55;;;;;;;36.70;11.32;;;;;;;;;;6318558;22;20466;-90
2024/01/03 12:45:39;;;;;;;81.43;16.85;;;;;;;;;;6318195;22;20017;-88
2024/01/03 12:48:23;;;;;;;12.23;9.55;;;;;;;;;;6318152;22;20018;-89
2024/01/03 12:51:12;;;;;;;54.58;14.13;;;;;;;;;;6318415;22;20022;-88
2024/01/03 12:53:59;;;;;;;10.52;8.88;;;;;;;;;;6319002;22;20021;-90
2024/01/03 12:56:43;;;;;;;56.65;14.30;;;;;;;;;;6318853;22;20071;-88
2024/01/03 12:59:32;;;;;;;16.42;9.48;;;;;;;;;;6318828;22;20017;-90
2024/01/03 13:02:17;;;;;;;20.13;8.90;;;;;;;;;;6318998;22;20021;-89
2024/01/03 13:05:03;;;;;;;50.92;11.82;;;;;;;;;;6318963;22;20017;-89
2024/01/03 13:07:47;;;;;;;9.00;7.65;;;;;;;;;;6318349;22;20013;-88
2024/01/03 13:10:32;;;;;;;7.53;5.60;;;;;;;;;;6318403;22;20040;-87
2024/01/03 13:13:16;;;;;;;16.70;6.65;;;;;;;;;;6318618;22;20017;-88
2024/01/03 13:16:03;;;;;;;20.80;7.75;;;;;;;;;;6319056;22;20060;-89
2024/01/03 13:18:47;;;;;;;8.00;7.13;;;;;;;;;;6320915;22;20045;-89
2024/01/03 13:21:31;;;;;;;10.70;7.63;;;;;;;;;;6321854;22;20092;-89
2024/01/03 13:24:15;;;;;;;7.30;6.60;;;;;;;;;;6321776;22;20021;-91
2024/01/03 13:26:59;;;;;;;7.57;6.78;;;;;;;;;;6320922;22;20068;-88
2024/01/03 13:29:47;;;;;;;8.77;7.97;;;;;;;;;;6320241;22;20045;-90
2024/01/03 13:32:44;;;;;;;21.55;10.65;;;;;;;;;;6318710;22;20022;-89
2024/01/03 13:35:28;;;;;;;46.03;12.30;;;;;;;;;;6318552;22;20079;-92
2024/01/03 13:38:13;;;;;;;9.88;8.93;;;;;;;;;;6317620;22;20333;-88
2024/01/03 13:40:58;;;;;;;19.92;9.38;;;;;;;;;;6318754;22;20057;-88
2024/01/03 13:43:43;;;;;;;11.82;9.23;;;;;;;;;;6319647;22;20520;-87
2024/01/03 13:46:28;;;;;;;9.88;7.43;;;;;;;;;;6318877;22;20017;-89
2024/01/03 13:49:12;;;;;;;73.00;15.90;;;;;;;;;;6318833;22;20087;-90
2024/01/03 13:51:57;;;;;;;16.63;9.38;;;;;;;;;;6318077;22;20053;-89
2024/01/03 13:54:40;;;;;;;61.75;17.25;;;;;;;;;;6318428;22;20060;-93
2024/01/03 13:57:24;;;;;;;40.10;17.45;;;;;;;;;;6320314;22;20021;-88
2024/01/03 14:00:09;;;;;;;17.75;13.10;;;;;;;;;;6319018;22;20014;-90
2024/01/03 14:02:54;;;;;;;12.93;11.63;;;;;;;;;;6319486;22;20016;-90
2024/01/03 14:05:39;;;;;;;76.47;22.45;;;;;;;;;;6319175;22;20042;-89
2024/01/03 14:08:22;;;;;;;15.45;13.85;;;;;;;;;;6320361;22;20094;-89
2024/01/03 14:11:07;;;;;;;19.42;14.55;;;;;;;;;;6319580;22;20022;-91
2024/01/03 14:13:51;;;;;;;24.33;14.68;;;;;;;;;;6319927;22;20021;-88
2024/01/03 14:16:35;;;;;;;24.35;14.35;;;;;;;;;;6320680;22;20455;-88
2024/01/03 14:19:19;;;;;;;16.45;12.93;;;;;;;;;;6323286;22;20492;-90
2024/01/03 14:22:03;;;;;;;14.70;12.68;;;;;;;;;;6321313;22;20514;-89
2024/01/03 14:24:47;;;;;;;20.10;13.02;;;;;;;;;;6320693;22;20056;-88
2024/01/03 14:27:31;;;;;;;18.73;13.70;;;;;;;;;;6320929;22;20014;-89
2024/01/03 14:30:16;;;;;;;19.67;13.32;;;;;;;;;;6320239;22;20057;-88
2024/01/03 14:33:01;;;;;;;20.75;13.38;;;;;;;;;;6320391;22;20014;-89
2024/01/03 14:35:50;;;;;;;13.10;11.90;;;;;;;;;;6320042;22;20459;-88
2024/01/03 14:38:37;;;;;;;30.95;12.82;;;;;;;;;;6318696;22;20068;-90
2024/01/03 14:41:23;;;;;;;19.02;12.55;;;;;;;;;;6318415;22;20018;-91
2024/01/03 14:44:09;;;;;;;13.90;12.40;;;;;;;;;;6318965;22;20021;-87
2024/01/03 14:46:54;;;;;;;19.15;12.75;;;;;;;;;;6319558;22;20076;-88
2024/01/03 14:49:38;;;;;;;17.63;12.93;;;;;;;;;;6319783;22;20056;-90
2024/01/03 14:52:22;;;;;;;15.15;13.65;;;;;;;;;;6320676;22;20093;-89
2024/01/03 14:55:10;;;;;;;31.13;17.35;;;;;;;;;;6320590;22;20017;-90
2024/01/03 14:57:56;;;;;;;40.75;17.73;;;;;;;;;;6320624;22;20022;-87
2024/01/03 15:00:41;;;;;;;20.77;15.57;;;;;;;;;;6319750;22;20021;-89
2024/01/03 15:03:25;;;;;;;19.05;14.15;;;;;;;;;;6320729;22;20336;-88
2024/01/03 15:06:09;;;;;;;60.20;19.60;;;;;;;;;;6320069;22;20471;-89
2024/01/03 15:08:53;;;;;;;21.55;15.18;;;;;;;;;;6317742;22;20013;-87
2024/01/03 15:11:37;;;;;;;43.58;17.73;;;;;;;;;;6317437;22;20025;-86
2024/01/03 15:14:21;;;;;;;24.20;15.48;;;;;;;;;;6318040;22;20052;-89
2024/01/03 15:17:05;;;;;;;37.92;17.08;;;;;;;;;;6316877;22;20094;-89
2024/01/03 15:23:18;;;;;;;17.33;13.82;;;;;;;;;;6341371;22;20067;-88
2024/01/03 15:26:03;;;;;;;35.03;16.50;;;;;;;;;;6317348;22;20017;-88
2024/01/03 15:28:47;;;;;;;29.85;16.20;;;;;;;;;;6317836;22;20060;-87
2024/01/03 15:31:35;;;;;;;22.45;14.25;;;;;;;;;;6317633;22;20018;-87
2024/01/03 15:34:18;;;;;;;19.80;13.60;;;;;;;;;;6317176;22;20018;-90
2024/01/03 15:37:07;;;;;;;32.20;16.25;;;;;;;;;;6316770;22;20023;-89
2024/01/03 15:39:51;;;;;;;38.92;17.05;;;;;;;;;;6317001;22;20511;-91
2024/01/03 15:42:35;;;;;;;33.47;17.13;;;;;;;;;;6316816;22;20022;-87
2024/01/03 15:45:19;;;;;;;30.00;17.38;;;;;;;;;;6316586;22;20014;-87
2024/01/03 15:48:03;;;;;;;34.97;18.38;;;;;;;;;;6316703;22;20037;-87
2024/01/03 15:50:47;;;;;;;38.55;19.48;;;;;;;;;;6340145;22;20021;-88
2024/01/03 15:53:31;;;;;;;35.53;18.77;;;;;;;;;;6317138;22;20090;-91
2024/01/03 15:56:16;;;;;;;37.45;19.25;;;;;;;;;;6317150;22;20022;-88
2024/01/03 15:59:00;;;;;;;39.97;20.85;;;;;;;;;;6317411;22;20044;-88
2024/01/03 16:01:44;;;;;;;50.08;21.88;;;;;;;;;;6316708;22;20476;-88
2024/01/03 16:04:30;;;;;;;42.47;22.15;;;;;;;;;;6316906;22;20111;-88
2024/01/03 16:07:14;;;;;;;44.13;23.05;;;;;;;;;;6317167;22;20036;-88
2024/01/03 16:09:58;;;;;;;47.78;23.63;;;;;;;;;;6316475;22;20017;-89
2024/01/03 16:12:42;;;;;;;45.58;24.08;;;;;;;;;;6317140;22;20033;-88
2024/01/03 16:15:35;;;;;;;44.05;22.85;;;;;;;;;;6316723;22;20021;-87
2024/01/03 16:18:20;;;;;;;44.70;23.70;;;;;;;;;;6316442;22;20484;-89
2024/01/03 16:21:04;;;;;;;61.90;26.58;;;;;;;;;;6317025;22;20022;-90
2024/01/03 16:23:50;;;;;;;47.28;25.73;;;;;;;;;;6316951;22;20517;-88
2024/01/03 16:26:34;;;;;;;48.60;27.05;;;;;;;;;;6316318;22;20014;-90
2024/01/03 16:29:18;;;;;;;50.22;27.45;;;;;;;;;;6316499;22;20063;-87
2024/01/03 16:32:03;;;;;;;54.17;27.33;;;;;;;;;;6316287;22;20390;-88
2024/01/03 16:34:48;;;;;;;51.28;25.88;;;;;;;;;;6316033;22;20060;-89
2024/01/03 16:37:31;;;;;;;49.83;24.67;;;;;;;;;;6316044;22;20017;-87
2024/01/03 16:40:15;;;;;;;48.03;24.17;;;;;;;;;;6315944;22;20079;-89
2024/01/03 16:42:59;;;;;;;46.33;24.35;;;;;;;;;;6316284;22;20017;-86
2024/01/03 16:45:47;;;;;;;44.58;26.10;;;;;;;;;;6316170;22;20014;-86
2024/01/03 16:48:31;;;;;;;50.50;25.40;;;;;;;;;;6315931;22;20018;-86
2024/01/03 16:51:14;;;;;;;52.72;29.45;;;;;;;;;;6316085;22;20089;-86
2024/01/03 16:53:58;;;;;;;50.20;30.17;;;;;;;;;;6316044;22;20053;-89
2024/01/03 16:56:46;;;;;;;50.92;28.73;;;;;;;;;;6315958;22;20018;-88
2024/01/03 16:59:31;;;;;;;39.88;24.10;;;;;;;;;;6318881;22;20025;-88
2024/01/03 17:02:14;;;;;;;41.10;21.27;;;;;;;;;;6315817;22;20018;-88
2024/01/03 17:04:59;;;;;;;27.92;17.67;;;;;;;;;;6339131;22;20021;-87
2024/01/03 17:07:43;;;;;;;41.78;21.50;;;;;;;;;;6316261;22;20065;-87
2024/01/03 17:10:28;;;;;;;35.67;21.85;;;;;;;;;;6339477;22;20056;-87
2024/01/03 17:13:12;;;;;;;31.85;19.48;;;;;;;;;;6339784;22;20089;-88
2024/01/03 17:16:12;;;;;;;34.75;21.33;;;;;;;;;;6338673;22;20052;-86
2024/01/03 17:18:56;;;;;;;32.95;19.80;;;;;;;;;;6338465;22;20483;-88
2024/01/03 17:21:40;;;;;;;28.75;20.30;;;;;;;;;;6315160;22;20452;-85
2024/01/03 17:24:27;;;;;;;24.25;20.30;;;;;;;;;;6315187;22;20014;-87
2024/01/03 17:27:11;;;;;;;25.63;17.38;;;;;;;;;;6315337;22;20014;-85